NWS Home NWS Lubbock West Texas Mesonet Latest Conditions as of 1103 AM, Fri Oct 24, 2014

Latest   N   C   S   Daily Sum   3hrΔ   24hrΔ   Soil Data 
Site Map   24hr Precip   72hr Precip   Google Plot


Station Time of Last Temp Dew Pt. RH Wind Direction Wind Speed Wind Gust Max Wind Max Temp Min Temp Max RH Min RH Altimeter 1HR Rain Today's Rain Solar Rad
Abernathy 5ENE  10:55 AM 70 59 73% SW1417 18 mph 238° @ 1050 AM 70 48 100 73 30.20" 0 0.00 517
Aiken 3WSW  10:57 AM 67 59 74% SW1112 12 mph 235° @ 1057 AM 67 47 100 74 30.19" 0 0.00 577
Amarillo 15NNW   10:55 AM 65 49 58% W1113 13 mph 260° @ 1055 AM 65 47 99 57 30.17" 0 0.00 496
Amarillo 7SSE  10:55 AM 66 54 65% W55 12 mph 257° @ 0718 AM 66 49 99 65 30.19" 0 0.00 538
Amarillo 9NNE  10:55 AM 66 52 60% W58 10 mph 167° @ 1214 AM 66 46 99 60 30.17" 0 0.00 530
Amherst 1NE  10:55 AM 71 56 60% SW811 14 mph 254° @ 0820 AM 71 50 97 60 30.19" 0 0.00 517
Andrews 2E  10:55 AM 74 59 61% SW79 12 mph 200° @ 0105 AM 74 58 94 61 30.21" 0 0.00 523
Anton 6SSW  10:55 AM 72 59 68% SW1315 15 mph 233° @ 1055 AM 72 49 100 68 30.19" 0 0.00 511
Aspermont 3NE  10:55 AM 72 63 76% SW1318 18 mph 219° @ 1055 AM 72 59 98 76 30.16" 0 0.00 542
Big Bend NP - Persimmon Gap  10:56 AM 66 62 87% S46 20 mph 22° @ 1214 AM 67 58 99 85 30.24" 0 0.00 567
Big Lake 1WNW  10:55 AM 72 62 69% S911 18 mph 195° @ 1027 AM 72 55 99 69 30.22" 0 0.00 475
Bootleg 11WNW  10:55 AM 70 44 39% W1012 16 mph 249° @ 0358 AM 70 50 92 39 30.24" 0 0.00 474
Brownfield 2S  10:55 AM 70 60 72% SW1214 15 mph 242° @ 0350 AM 70 54 98 72 30.20" 0 0.00 533
Canadian 6E  10:55 AM 63 60 90% W1012 12 mph 291° @ 1053 AM 63 51 100 88 30.10" 0 0.00 525
Caprock Canyons State Park  10:55 AM 76 57 52% W710 23 mph 282° @ 0839 AM 76 56 98 51 30.14" 0 0.00 438
Childress 2NNE  10:55 AM 76 58 56% SW79 15 mph 199° @ 0715 AM 76 56 100 56 30.12" 0 0.00 518
Clarendon 2WSW  10:55 AM 71 56 61% W1013 15 mph 262° @ 1010 AM 71 50 97 61 30.13" 0 0.00 504
Claude 12SW  09:37 AM 62 54 77% W56 13 mph 250° @ 0650 AM 62 54 100 77 30.16" 0 0.00 323
Coyanosa 2N  10:55 AM 70 60 71% W45 10 mph 145° @ 1209 AM 70 55 98 70 30.20" 0 0.00 470
Denver City 7WNW  10:55 AM 67 58 74% SW811 12 mph 206° @ 0150 AM 67 52 99 74 30.22" 0 0.00 410
Dimmitt 2NE  10:55 AM 67 52 59% SW911 16 mph 248° @ 0955 AM 67 52 91 59 30.19" 0 0.00 486
Dora NM 2SW  10:55 AM 72 41 33% W1518 19 mph 269° @ 1045 AM 72 54 93 32 30.23" 0 0.00 449
Dozier 3W  10:55 AM 66 61 86% SW45 8 mph 192° @ 1047 AM 66 53 100 86 30.13" 0 0.00 524
Floydada 2NNE  10:55 AM 67 59 76% SW1417 17 mph 241° @ 1055 AM 67 48 100 76 30.18" 0 0.00 532
Fluvanna 3WNW  10:55 AM 64 61 91% S1013 14 mph 206° @ 1035 AM 64 56 96 90 30.19" 0 0.01 504
Friona 2NE  10:55 AM 67 54 62% W810 13 mph 258° @ 1040 AM 67 46 96 60 30.21" 0 0.00 511
Gail 2ESE  10:55 AM 63 61 94% SW68 8 mph 220° @ 1035 AM 63 56 98 92 30.19" 0 0.01 344
Goodlett 3W  10:55 AM 75 59 57% SW911 12 mph 215° @ 0900 AM 75 54 96 57 30.10" 0 0.00 521
Graham 5SSW  10:55 AM 69 60 74% S710 15 mph 202° @ 0110 AM 69 56 96 74 30.19" 0 0.00 490
Guadalupe Mtns Natl Park  10:55 AM 68 50 53% SW810 19 mph 301° @ 0633 AM 70 56 74 37 30.33" 0 0.00 501
Guthrie 10WSW  10:55 AM 72 60 68% SW1216 16 mph 232° @ 1055 AM 72 58 97 68 30.15" 0 0.00 498
Hart 3N  10:55 AM 67 56 67% W812 12 mph 247° @ 1000 AM 67 48 97 67 30.19" 0 0.01 523
Haskell 1NW  10:55 AM 73 61 69% SW1317 18 mph 228° @ 1050 AM 73 59 97 69 30.14" 0 0.00 508
Hereford 2NW  10:55 AM 67 50 56% W68 10 mph 233° @ 0550 AM 67 45 95 56 30.19" 0 0.00 528
Hobbs NM 5NW  10:55 AM 68 59 74% SW57 11 mph 185° @ 0142 AM 68 51 98 74 30.25" 0 0.00 519
Jayton 1SSE  10:35 AM 67 62 85% SW912 12 mph 214° @ 1035 AM 67 55 99 85 30.16" 0 0.00 464
Junction 1SSW  10:55 AM 72 60 66% S57 7 mph 177° @ 1055 AM 72 48 99 66 30.20" 0 0.00 521
Knox City 3NW  10:55 AM 72 61 71% SW912 13 mph 222° @ 1005 AM 72 59 91 71 30.15" 0 0.00 467
Lake Alan Henry 1NW  10:56 AM 70 63 76% SW810 16 mph 218° @ 1054 AM 70 57 96 75 30.17" 0 0.01 532
Lamesa 2SE  10:55 AM 65 64 97% SW811 13 mph 229° @ 1035 AM 65 49 100 94 30.21" 0 0.00 488
Levelland 4S  10:55 AM 72 58 61% SW1215 17 mph 216° @ 1020 AM 72 51 95 61 30.20" 0 0.00 517
Lomax 1SSE  10:55 AM 69 64 84% S79 11 mph 187° @ 1202 AM 69 55 100 84 30.20" 0 0.00 558
Lubbock 3WNW TTU  10:55 AM 73 59 65% SW1115 15 mph 226° @ 1055 AM 73 48 100 65 30.19" 0 0.00 517
McLean 1E  10:55 AM 70 58 66% W810 11 mph 174° @ 1210 AM 70 52 100 66 30.12" 0 0.00 575
Memphis 1NE  10:55 AM 68 60 76% SW710 10 mph 204° @ 1055 AM 68 53 100 76 30.12" 0 0.00 454
Menard 2NW   10:55 AM 76 59 56% SW1215 15 mph 202° @ 1054 AM 76 49 99 56 30.21" 0 0.00 574
Mertzon 3NNE  10:56 AM 72 61 68% SW1114 18 mph 209° @ 1034 AM 72 58 96 68 30.20" 0 0.00 563
Morton 1ENE  10:55 AM 74 54 52% W911 17 mph 219° @ 1205 AM 74 52 97 52 30.20" 0 0.00 507
Muleshoe 2SSW  10:55 AM 68 50 53% W1014 14 mph 265° @ 1035 AM 68 43 99 53 30.20" 0 0.00 519
Northfield 1S  10:55 AM 73 60 67% SW57 10 mph 217° @ 1050 AM 73 55 100 67 30.13" 0 0.00 509
O'Donnell 1N  10:55 AM 70 59 69% SW810 13 mph 244° @ 1010 AM 70 51 98 69 30.20" 0 0.00 447
Odell 4ENE  10:55 AM 75 63 67% S911 13 mph 187° @ 1028 AM 75 59 96 66 30.11" 0 0.00 482
Olton 6S  10:55 AM 68 56 67% SW79 12 mph 254° @ 1015 AM 68 50 96 67 30.19" 0 0.00 525
Paducah 10SW  10:55 AM 73 61 67% SW47 13 mph 208° @ 0320 AM 73 57 97 67 30.14" 0 0.00 448
Palo Duro Canyon State Park  10:56 AM 68 55 64% NW56 17 mph 274° @ 0708 AM 68 53 93 63 30.19" 0 0.00 548
Pampa 2E  10:55 AM 69 55 63% NW78 11 mph 284° @ 1025 AM 69 50 100 63 30.15" 0 0.01 505
Plains 3N  10:55 AM 71 56 62% SW912 13 mph 218° @ 1050 AM 71 51 97 62 30.22" 0 0.00 434
Plainview 1S  10:55 AM 67 58 74% SW811 13 mph 248° @ 1015 AM 67 48 100 74 30.18" 0 0.00 502
Post 1NE  10:55 AM 72 60 68% SW610 13 mph 214° @ 0125 AM 72 58 96 68 30.18" 0 0.00 531
Ralls 1SE  10:55 AM 70 61 75% SW912 12 mph 244° @ 1055 AM 70 50 100 75 30.20" 0 0.00 527
Reese Center  10:55 AM 71 59 66% SW1518 18 mph 216° @ 1055 AM 71 51 99 66 30.19" 0 0.00 558
Roaring Springs 3N  10:55 AM 73 62 68% SW1115 17 mph 243° @ 0940 AM 73 56 100 68 30.16" 0.01 0.01 441
San Angelo 7NW  10:55 AM 72 59 65% S1013 13 mph 192° @ 1055 AM 72 51 96 65 30.20" 0 0.00 557
Seminole 2NNE  10:55 AM 71 60 71% SW711 15 mph 202° @ 0105 AM 71 54 97 71 30.21" 0 0.00 520
Seymour 3NW  10:55 AM 73 62 70% NW1014 14 mph 334° @ 1055 AM 73 58 93 70 30.14" 0 0.00 524
Silverton 7ESE  10:55 AM 71 57 62% SW1417 19 mph 249° @ 1035 AM 71 52 98 62 30.16" 0 0.01 506
Slaton 2NE  10:55 AM 70 60 72% SW1316 16 mph 238° @ 1055 AM 70 47 100 72 30.19" 0 0.01 521
Snyder 3E  10:55 AM 62 62 100% SW710 11 mph 186° @ 0400 AM 62 56 100 96 30.19" 0 0.01 413
Spur 1W  10:55 AM 69 60 74% SW713 13 mph 246° @ 1045 AM 69 52 98 74 30.16" 0 0.00 517
St. Lawrence 5SW  10:55 AM 72 60 67% S1012 14 mph 195° @ 1025 AM 72 51 100 67 30.20" 0 0.00 555
Sterling City 4WSW  10:56 AM 73 61 66% S1012 17 mph 198° @ 0208 AM 73 53 99 66 30.20" 0 0.00 518
Sundown 8WSW  10:55 AM 72 57 60% SW1215 16 mph 219° @ 1050 AM 72 51 96 60 30.21" 0 0.00 451
Sweetwater 11SW   10:55 AM 72 62 71% SW710 15 mph 231° @ 1029 AM 72 58 99 71 30.21" 0 0.00 566
Tahoka 3NNE  10:55 AM 71 61 71% SW911 13 mph 238° @ 0955 AM 71 52 98 70 30.19" 0 0.01 532
Tarzan 2WNW  10:55 AM 65 62 91% SW56 9 mph 179° @ 0158 AM 65 52 99 91 30.21" 0 0.00 583
Tatum NM 2SW  10:55 AM 76 52 44% SW68 11 mph 213° @ 1245 AM 76 50 93 44 30.23" 0 0.00 466
Tulia 2ENE  10:55 AM 69 57 67% W1012 17 mph 208° @ 0140 AM 69 54 100 67 30.18" 0 0.00 492
Turkey 2WSW  10:55 AM 73 59 61% SW1418 18 mph 230° @ 1055 AM 73 56 100 61 30.13" 0 0.00 499
Umbarger 3NNE  10:55 AM 65 55 70% W56 12 mph 228° @ 0628 AM 65 48 95 70 30.20" 0 0.00 569
Wall 1E  10:55 AM 73 59 62% SW1218 18 mph 217° @ 1055 AM 73 50 96 62 30.19" 0 0.00 456
Weinert 2NNE  10:56 AM 74 63 68% SW1214 19 mph 232° @ 1018 AM 74 58 95 68 30.15" 0 0.00 539
White River Lake 6NW  10:55 AM 73 61 68% SW1114 14 mph 218° @ 1055 AM 73 57 99 68 30.17" 0 0.01 515
Wolfforth 6SSW  10:55 AM 71 61 72% SW1217 17 mph 213° @ 1055 AM 71 52 100 72 30.20" 0 0.00 513

West Texas Mesonet Home   Site Map/Menu  NWS Lubbock Soil Data  Daily Summary Page  24hr Precip  72hr Precip  Google Plot